sensor_id;sensor_type;location;lat;lon;timestamp;temperature;humidity
47576;DHT22;33304;52.456;13.328;2023-02-28T00:00:00;3.30;24.70
47576;DHT22;33304;52.456;13.328;2023-02-28T00:02:37;3.40;24.20
47576;DHT22;33304;52.456;13.328;2023-02-28T00:05:05;3.40;24.30
47576;DHT22;33304;52.456;13.328;2023-02-28T00:07:32;3.40;24.40
47576;DHT22;33304;52.456;13.328;2023-02-28T00:09:59;3.50;24.00
47576;DHT22;33304;52.456;13.328;2023-02-28T00:12:27;3.60;23.90
47576;DHT22;33304;52.456;13.328;2023-02-28T00:14:54;3.50;24.00
47576;DHT22;33304;52.456;13.328;2023-02-28T00:17:21;3.40;24.20
47576;DHT22;33304;52.456;13.328;2023-02-28T00:19:50;3.50;24.20
47576;DHT22;33304;52.456;13.328;2023-02-28T00:22:19;3.50;24.20
47576;DHT22;33304;52.456;13.328;2023-02-28T00:24:46;3.50;24.50
47576;DHT22;33304;52.456;13.328;2023-02-28T00:27:14;3.50;24.50
47576;DHT22;33304;52.456;13.328;2023-02-28T00:29:41;3.50;24.30
47576;DHT22;33304;52.456;13.328;2023-02-28T00:32:10;3.40;25.00
47576;DHT22;33304;52.456;13.328;2023-02-28T00:34:37;3.30;24.80
47576;DHT22;33304;52.456;13.328;2023-02-28T00:37:07;3.30;25.10
47576;DHT22;33304;52.456;13.328;2023-02-28T00:39:36;3.40;24.70
47576;DHT22;33304;52.456;13.328;2023-02-28T00:42:04;3.40;24.40
47576;DHT22;33304;52.456;13.328;2023-02-28T00:44:32;3.50;24.30
47576;DHT22;33304;52.456;13.328;2023-02-28T00:46:59;3.40;24.50
47576;DHT22;33304;52.456;13.328;2023-02-28T00:49:27;3.30;24.90
47576;DHT22;33304;52.456;13.328;2023-02-28T00:51:55;3.30;25.20
47576;DHT22;33304;52.456;13.328;2023-02-28T00:54:24;3.20;25.10
47576;DHT22;33304;52.456;13.328;2023-02-28T00:56:51;3.40;24.90
47576;DHT22;33304;52.456;13.328;2023-02-28T00:59:18;3.30;24.90
47576;DHT22;33304;52.456;13.328;2023-02-28T01:01:46;3.30;24.90
47576;DHT22;33304;52.456;13.328;2023-02-28T01:04:14;3.30;25.00
47576;DHT22;33304;52.456;13.328;2023-02-28T01:06:41;3.40;24.80
47576;DHT22;33304;52.456;13.328;2023-02-28T01:09:10;3.30;24.70
47576;DHT22;33304;52.456;13.328;2023-02-28T01:11:39;3.30;25.30
47576;DHT22;33304;52.456;13.328;2023-02-28T01:14:12;3.10;25.20
47576;DHT22;33304;52.456;13.328;2023-02-28T01:16:39;3.20;25.20
47576;DHT22;33304;52.456;13.328;2023-02-28T01:19:06;3.10;25.40
47576;DHT22;33304;52.456;13.328;2023-02-28T01:21:33;3.20;25.30
47576;DHT22;33304;52.456;13.328;2023-02-28T01:24:02;3.20;25.40
47576;DHT22;33304;52.456;13.328;2023-02-28T01:26:29;3.10;25.60
47576;DHT22;33304;52.456;13.328;2023-02-28T01:28:58;3.00;25.80
47576;DHT22;33304;52.456;13.328;2023-02-28T01:31:26;3.00;26.20
47576;DHT22;33304;52.456;13.328;2023-02-28T01:33:53;3.00;26.30
47576;DHT22;33304;52.456;13.328;2023-02-28T01:36:21;3.10;25.80
47576;DHT22;33304;52.456;13.328;2023-02-28T01:38:49;3.00;25.70
47576;DHT22;33304;52.456;13.328;2023-02-28T01:41:19;3.00;26.20
47576;DHT22;33304;52.456;13.328;2023-02-28T01:43:59;2.80;26.30
47576;DHT22;33304;52.456;13.328;2023-02-28T01:46:30;2.80;27.30
47576;DHT22;33304;52.456;13.328;2023-02-28T01:49:01;2.80;27.00
47576;DHT22;33304;52.456;13.328;2023-02-28T01:51:34;2.70;27.30
47576;DHT22;33304;52.456;13.328;2023-02-28T01:54:07;2.80;27.30
47576;DHT22;33304;52.456;13.328;2023-02-28T01:56:42;2.60;27.20
47576;DHT22;33304;52.456;13.328;2023-02-28T01:59:17;2.80;27.40
47576;DHT22;33304;52.456;13.328;2023-02-28T02:01:46;2.90;26.80
47576;DHT22;33304;52.456;13.328;2023-02-28T02:04:13;2.90;27.80
47576;DHT22;33304;52.456;13.328;2023-02-28T02:06:44;2.70;27.30
47576;DHT22;33304;52.456;13.328;2023-02-28T02:09:11;2.50;27.20
47576;DHT22;33304;52.456;13.328;2023-02-28T02:11:41;2.40;27.10
47576;DHT22;33304;52.456;13.328;2023-02-28T02:14:30;2.40;27.80
47576;DHT22;33304;52.456;13.328;2023-02-28T02:17:10;2.50;27.30
47576;DHT22;33304;52.456;13.328;2023-02-28T02:26:08;2.50;27.90
47576;DHT22;33304;52.456;13.328;2023-02-28T02:29:04;2.40;27.80
47576;DHT22;33304;52.456;13.328;2023-02-28T02:31:55;2.40;27.60
47576;DHT22;33304;52.456;13.328;2023-02-28T02:34:48;2.40;28.30
47576;DHT22;33304;52.456;13.328;2023-02-28T02:37:25;2.30;28.10
47576;DHT22;33304;52.456;13.328;2023-02-28T02:40:03;2.20;28.70
47576;DHT22;33304;52.456;13.328;2023-02-28T02:42:38;2.20;28.70
47576;DHT22;33304;52.456;13.328;2023-02-28T02:45:12;2.20;28.90
47576;DHT22;33304;52.456;13.328;2023-02-28T02:47:43;2.20;29.00
47576;DHT22;33304;52.456;13.328;2023-02-28T02:50:15;2.10;29.20
47576;DHT22;33304;52.456;13.328;2023-02-28T02:52:48;2.00;29.40
47576;DHT22;33304;52.456;13.328;2023-02-28T02:55:17;2.20;29.40
47576;DHT22;33304;52.456;13.328;2023-02-28T02:57:48;2.20;29.40
47576;DHT22;33304;52.456;13.328;2023-02-28T03:00:19;2.20;29.20
47576;DHT22;33304;52.456;13.328;2023-02-28T03:02:47;2.20;29.40
47576;DHT22;33304;52.456;13.328;2023-02-28T03:05:21;2.10;29.60
47576;DHT22;33304;52.456;13.328;2023-02-28T03:07:50;2.10;29.30
47576;DHT22;33304;52.456;13.328;2023-02-28T03:10:29;1.90;29.90
47576;DHT22;33304;52.456;13.328;2023-02-28T03:13:17;2.00;29.90
47576;DHT22;33304;52.456;13.328;2023-02-28T03:15:58;1.90;30.00
47576;DHT22;33304;52.456;13.328;2023-02-28T03:18:34;1.80;30.30
47576;DHT22;33304;52.456;13.328;2023-02-28T03:21:12;1.90;30.50
47576;DHT22;33304;52.456;13.328;2023-02-28T03:23:48;1.80;30.40
47576;DHT22;33304;52.456;13.328;2023-02-28T03:26:23;1.70;31.40
47576;DHT22;33304;52.456;13.328;2023-02-28T03:28:56;1.60;31.30
47576;DHT22;33304;52.456;13.328;2023-02-28T03:31:29;1.60;31.30
47576;DHT22;33304;52.456;13.328;2023-02-28T03:34:01;1.70;31.40
47576;DHT22;33304;52.456;13.328;2023-02-28T03:36:35;1.80;31.50
47576;DHT22;33304;52.456;13.328;2023-02-28T03:39:12;1.80;31.40
47576;DHT22;33304;52.456;13.328;2023-02-28T03:41:43;1.80;31.40
47576;DHT22;33304;52.456;13.328;2023-02-28T03:44:16;1.80;31.40
47576;DHT22;33304;52.456;13.328;2023-02-28T03:46:48;1.60;31.30
47576;DHT22;33304;52.456;13.328;2023-02-28T03:49:20;1.50;31.80
47576;DHT22;33304;52.456;13.328;2023-02-28T03:51:50;1.50;32.50
47576;DHT22;33304;52.456;13.328;2023-02-28T03:54:21;1.50;32.40
47576;DHT22;33304;52.456;13.328;2023-02-28T03:56:54;1.60;32.30
47576;DHT22;33304;52.456;13.328;2023-02-28T03:59:27;1.60;32.70
47576;DHT22;33304;52.456;13.328;2023-02-28T04:01:55;1.50;33.30
47576;DHT22;33304;52.456;13.328;2023-02-28T04:04:24;1.50;33.20
47576;DHT22;33304;52.456;13.328;2023-02-28T04:06:53;1.50;33.00
47576;DHT22;33304;52.456;13.328;2023-02-28T04:09:27;1.50;33.10
47576;DHT22;33304;52.456;13.328;2023-02-28T04:11:54;1.50;33.40
47576;DHT22;33304;52.456;13.328;2023-02-28T04:14:22;1.50;33.30
47576;DHT22;33304;52.456;13.328;2023-02-28T04:16:50;1.50;33.00
47576;DHT22;33304;52.456;13.328;2023-02-28T04:19:18;1.40;33.10
47576;DHT22;33304;52.456;13.328;2023-02-28T04:21:47;1.40;33.80
47576;DHT22;33304;52.456;13.328;2023-02-28T04:24:19;1.40;33.60
47576;DHT22;33304;52.456;13.328;2023-02-28T04:26:49;1.40;33.30
47576;DHT22;33304;52.456;13.328;2023-02-28T04:29:19;1.40;33.30
47576;DHT22;33304;52.456;13.328;2023-02-28T04:31:47;1.40;33.30
47576;DHT22;33304;52.456;13.328;2023-02-28T04:34:14;1.30;33.80
47576;DHT22;33304;52.456;13.328;2023-02-28T04:36:41;1.20;34.40
47576;DHT22;33304;52.456;13.328;2023-02-28T04:39:08;1.20;34.90
47576;DHT22;33304;52.456;13.328;2023-02-28T04:41:38;1.20;35.00
47576;DHT22;33304;52.456;13.328;2023-02-28T04:44:05;1.30;34.90
47576;DHT22;33304;52.456;13.328;2023-02-28T04:46:32;1.30;34.30
47576;DHT22;33304;52.456;13.328;2023-02-28T04:48:59;1.30;34.10
47576;DHT22;33304;52.456;13.328;2023-02-28T04:51:26;1.30;34.60
47576;DHT22;33304;52.456;13.328;2023-02-28T04:53:53;1.30;34.90
47576;DHT22;33304;52.456;13.328;2023-02-28T04:56:21;1.20;34.80
47576;DHT22;33304;52.456;13.328;2023-02-28T04:58:49;1.30;34.80
47576;DHT22;33304;52.456;13.328;2023-02-28T05:01:22;1.20;34.40
47576;DHT22;33304;52.456;13.328;2023-02-28T05:03:49;1.10;34.70
47576;DHT22;33304;52.456;13.328;2023-02-28T05:06:17;1.10;34.60
47576;DHT22;33304;52.456;13.328;2023-02-28T05:08:44;1.00;35.00
47576;DHT22;33304;52.456;13.328;2023-02-28T05:11:16;0.90;36.30
47576;DHT22;33304;52.456;13.328;2023-02-28T05:13:44;0.90;36.40
47576;DHT22;33304;52.456;13.328;2023-02-28T05:16:13;0.80;36.40
47576;DHT22;33304;52.456;13.328;2023-02-28T05:18:41;0.70;36.30
47576;DHT22;33304;52.456;13.328;2023-02-28T05:21:23;0.70;36.30
47576;DHT22;33304;52.456;13.328;2023-02-28T05:23:51;0.60;36.30
47576;DHT22;33304;52.456;13.328;2023-02-28T05:26:18;0.60;36.80
47576;DHT22;33304;52.456;13.328;2023-02-28T05:28:45;0.70;37.70
47576;DHT22;33304;52.456;13.328;2023-02-28T05:31:14;0.70;37.30
47576;DHT22;33304;52.456;13.328;2023-02-28T05:33:41;0.90;36.70
47576;DHT22;33304;52.456;13.328;2023-02-28T05:36:08;1.00;36.50
47576;DHT22;33304;52.456;13.328;2023-02-28T05:38:35;1.10;36.60
47576;DHT22;33304;52.456;13.328;2023-02-28T05:41:06;1.00;36.50
47576;DHT22;33304;52.456;13.328;2023-02-28T05:43:33;1.00;36.60
47576;DHT22;33304;52.456;13.328;2023-02-28T05:46:02;1.00;36.50
47576;DHT22;33304;52.456;13.328;2023-02-28T05:48:31;1.00;36.50
47576;DHT22;33304;52.456;13.328;2023-02-28T05:50:58;0.90;36.40
47576;DHT22;33304;52.456;13.328;2023-02-28T05:53:26;0.90;36.40
47576;DHT22;33304;52.456;13.328;2023-02-28T05:55:53;0.90;36.40
47576;DHT22;33304;52.456;13.328;2023-02-28T05:58:20;0.90;36.40
47576;DHT22;33304;52.456;13.328;2023-02-28T06:00:47;0.80;36.40
47576;DHT22;33304;52.456;13.328;2023-02-28T06:03:14;0.70;36.30
47576;DHT22;33304;52.456;13.328;2023-02-28T06:05:43;0.80;36.40
47576;DHT22;33304;52.456;13.328;2023-02-28T06:08:10;0.90;36.40
47576;DHT22;33304;52.456;13.328;2023-02-28T06:10:37;1.00;36.50
47576;DHT22;33304;52.456;13.328;2023-02-28T06:13:05;1.10;37.30
47576;DHT22;33304;52.456;13.328;2023-02-28T06:15:32;1.10;36.60
47576;DHT22;33304;52.456;13.328;2023-02-28T06:17:59;1.00;36.50
47576;DHT22;33304;52.456;13.328;2023-02-28T06:20:27;1.00;36.50
47576;DHT22;33304;52.456;13.328;2023-02-28T06:22:57;1.00;36.50
47576;DHT22;33304;52.456;13.328;2023-02-28T06:25:25;1.00;36.50
47576;DHT22;33304;52.456;13.328;2023-02-28T06:27:53;1.00;36.50
47576;DHT22;33304;52.456;13.328;2023-02-28T06:30:20;1.10;36.60
47576;DHT22;33304;52.456;13.328;2023-02-28T06:32:49;1.00;36.60
47576;DHT22;33304;52.456;13.328;2023-02-28T06:35:16;1.00;36.50
47576;DHT22;33304;52.456;13.328;2023-02-28T06:37:44;1.00;36.50
47576;DHT22;33304;52.456;13.328;2023-02-28T06:40:13;1.00;36.60
47576;DHT22;33304;52.456;13.328;2023-02-28T06:42:40;1.00;36.50
47576;DHT22;33304;52.456;13.328;2023-02-28T06:45:08;1.00;36.50
47576;DHT22;33304;52.456;13.328;2023-02-28T06:47:36;1.00;36.60
47576;DHT22;33304;52.456;13.328;2023-02-28T06:50:05;1.00;36.50
47576;DHT22;33304;52.456;13.328;2023-02-28T06:52:32;0.90;36.40
47576;DHT22;33304;52.456;13.328;2023-02-28T06:55:02;0.90;36.50
47576;DHT22;33304;52.456;13.328;2023-02-28T06:57:31;0.90;36.50
47576;DHT22;33304;52.456;13.328;2023-02-28T06:59:59;1.00;36.50
47576;DHT22;33304;52.456;13.328;2023-02-28T07:02:26;1.10;36.60
47576;DHT22;33304;52.456;13.328;2023-02-28T07:04:53;1.20;36.70
47576;DHT22;33304;52.456;13.328;2023-02-28T07:07:20;1.20;35.60
47576;DHT22;33304;52.456;13.328;2023-02-28T07:09:47;1.20;35.90
47576;DHT22;33304;52.456;13.328;2023-02-28T07:12:15;1.20;35.30
47576;DHT22;33304;52.456;13.328;2023-02-28T07:14:43;1.30;35.00
47576;DHT22;33304;52.456;13.328;2023-02-28T07:17:11;1.30;34.50
47576;DHT22;33304;52.456;13.328;2023-02-28T07:19:38;1.40;34.30
47576;DHT22;33304;52.456;13.328;2023-02-28T07:22:06;1.40;33.70
47576;DHT22;33304;52.456;13.328;2023-02-28T07:24:34;1.50;32.20
47576;DHT22;33304;52.456;13.328;2023-02-28T07:27:01;1.50;32.20
47576;DHT22;33304;52.456;13.328;2023-02-28T07:29:28;1.60;31.80
47576;DHT22;33304;52.456;13.328;2023-02-28T07:31:57;1.70;30.40
47576;DHT22;33304;52.456;13.328;2023-02-28T07:34:24;1.70;30.20
47576;DHT22;33304;52.456;13.328;2023-02-28T07:36:53;1.70;30.30
47576;DHT22;33304;52.456;13.328;2023-02-28T07:39:20;1.80;29.40
47576;DHT22;33304;52.456;13.328;2023-02-28T07:41:48;2.10;26.90
47576;DHT22;33304;52.456;13.328;2023-02-28T07:44:15;2.10;26.90
47576;DHT22;33304;52.456;13.328;2023-02-28T07:46:42;2.10;26.90
47576;DHT22;33304;52.456;13.328;2023-02-28T07:49:10;2.20;26.30
47576;DHT22;33304;52.456;13.328;2023-02-28T07:51:37;2.30;25.00
47576;DHT22;33304;52.456;13.328;2023-02-28T07:54:05;2.40;24.00
47576;DHT22;33304;52.456;13.328;2023-02-28T07:56:32;2.50;22.90
47576;DHT22;33304;52.456;13.328;2023-02-28T07:58:59;2.50;22.60
47576;DHT22;33304;52.456;13.328;2023-02-28T08:01:27;2.50;22.50
47576;DHT22;33304;52.456;13.328;2023-02-28T08:03:54;2.60;21.70
47576;DHT22;33304;52.456;13.328;2023-02-28T08:06:25;2.60;21.70
47576;DHT22;33304;52.456;13.328;2023-02-28T08:08:53;2.70;20.40
47576;DHT22;33304;52.456;13.328;2023-02-28T08:11:21;2.70;20.40
47576;DHT22;33304;52.456;13.328;2023-02-28T08:13:49;2.90;18.10
47576;DHT22;33304;52.456;13.328;2023-02-28T08:16:16;2.80;16.80
47576;DHT22;33304;52.456;13.328;2023-02-28T08:18:48;2.80;16.60
47576;DHT22;33304;52.456;13.328;2023-02-28T08:21:16;3.00;16.80
47576;DHT22;33304;52.456;13.328;2023-02-28T08:23:46;3.00;15.40
47576;DHT22;33304;52.456;13.328;2023-02-28T08:26:13;3.00;13.70
47576;DHT22;33304;52.456;13.328;2023-02-28T08:28:40;3.20;15.10
47576;DHT22;33304;52.456;13.328;2023-02-28T08:31:08;3.30;14.60
47576;DHT22;33304;52.456;13.328;2023-02-28T08:33:36;3.30;13.20
47576;DHT22;33304;52.456;13.328;2023-02-28T08:36:05;3.50;13.80
47576;DHT22;33304;52.456;13.328;2023-02-28T08:38:33;3.50;11.70
47576;DHT22;33304;52.456;13.328;2023-02-28T08:41:03;3.60;13.10
47576;DHT22;33304;52.456;13.328;2023-02-28T08:43:32;3.80;11.00
47576;DHT22;33304;52.456;13.328;2023-02-28T08:46:00;3.90;11.10
47576;DHT22;33304;52.456;13.328;2023-02-28T08:48:29;4.00;10.20
47576;DHT22;33304;52.456;13.328;2023-02-28T08:50:57;4.30;12.40
47576;DHT22;33304;52.456;13.328;2023-02-28T08:53:24;4.20;9.30
47576;DHT22;33304;52.456;13.328;2023-02-28T08:55:58;3.90;8.20
47576;DHT22;33304;52.456;13.328;2023-02-28T08:58:27;3.90;9.10
47576;DHT22;33304;52.456;13.328;2023-02-28T09:00:55;4.30;9.40
47576;DHT22;33304;52.456;13.328;2023-02-28T09:03:22;4.20;6.10
47576;DHT22;33304;52.456;13.328;2023-02-28T09:05:55;3.90;7.50
47576;DHT22;33304;52.456;13.328;2023-02-28T09:08:23;4.20;7.10
47576;DHT22;33304;52.456;13.328;2023-02-28T09:10:50;4.30;7.00
47576;DHT22;33304;52.456;13.328;2023-02-28T09:13:18;4.40;7.80
47576;DHT22;33304;52.456;13.328;2023-02-28T09:15:46;4.50;7.00
47576;DHT22;33304;52.456;13.328;2023-02-28T09:18:13;4.60;6.40
47576;DHT22;33304;52.456;13.328;2023-02-28T09:20:42;4.70;7.70
47576;DHT22;33304;52.456;13.328;2023-02-28T09:23:11;4.70;7.00
47576;DHT22;33304;52.456;13.328;2023-02-28T09:25:40;4.80;5.80
47576;DHT22;33304;52.456;13.328;2023-02-28T09:28:11;4.80;6.10
47576;DHT22;33304;52.456;13.328;2023-02-28T09:30:38;4.90;4.80
47576;DHT22;33304;52.456;13.328;2023-02-28T09:33:06;4.60;5.40
47576;DHT22;33304;52.456;13.328;2023-02-28T09:35:34;4.50;5.70
47576;DHT22;33304;52.456;13.328;2023-02-28T09:38:03;4.80;5.30
47576;DHT22;33304;52.456;13.328;2023-02-28T09:40:31;4.90;5.80
47576;DHT22;33304;52.456;13.328;2023-02-28T09:42:59;5.00;6.30
47576;DHT22;33304;52.456;13.328;2023-02-28T09:45:29;5.00;5.90
47576;DHT22;33304;52.456;13.328;2023-02-28T09:48:01;4.90;5.80
47576;DHT22;33304;52.456;13.328;2023-02-28T09:50:35;5.20;4.70
47576;DHT22;33304;52.456;13.328;2023-02-28T09:53:06;5.20;3.20
47576;DHT22;33304;52.456;13.328;2023-02-28T09:55:42;5.30;5.80
47576;DHT22;33304;52.456;13.328;2023-02-28T09:58:18;5.40;5.50
47576;DHT22;33304;52.456;13.328;2023-02-28T10:00:54;5.60;4.50
47576;DHT22;33304;52.456;13.328;2023-02-28T10:03:29;5.60;4.40
47576;DHT22;33304;52.456;13.328;2023-02-28T10:06:05;5.60;4.00
47576;DHT22;33304;52.456;13.328;2023-02-28T10:08:36;5.50;3.30
47576;DHT22;33304;52.456;13.328;2023-02-28T10:11:09;5.40;3.70
47576;DHT22;33304;52.456;13.328;2023-02-28T10:13:50;5.50;4.30
47576;DHT22;33304;52.456;13.328;2023-02-28T10:16:24;5.70;3.00
47576;DHT22;33304;52.456;13.328;2023-02-28T10:18:57;5.30;2.60
47576;DHT22;33304;52.456;13.328;2023-02-28T10:21:29;5.30;3.70
47576;DHT22;33304;52.456;13.328;2023-02-28T10:24:03;5.40;3.70
47576;DHT22;33304;52.456;13.328;2023-02-28T10:26:32;5.60;3.20
47576;DHT22;33304;52.456;13.328;2023-02-28T10:28:59;5.30;2.70
47576;DHT22;33304;52.456;13.328;2023-02-28T10:31:26;5.50;3.50
47576;DHT22;33304;52.456;13.328;2023-02-28T10:33:53;5.70;2.80
47576;DHT22;33304;52.456;13.328;2023-02-28T10:36:21;5.90;3.10
47576;DHT22;33304;52.456;13.328;2023-02-28T10:38:50;6.00;3.70
47576;DHT22;33304;52.456;13.328;2023-02-28T10:41:28;6.20;2.50
47576;DHT22;33304;52.456;13.328;2023-02-28T10:44:14;6.30;2.40
47576;DHT22;33304;52.456;13.328;2023-02-28T10:46:42;6.20;1.50
47576;DHT22;33304;52.456;13.328;2023-02-28T10:49:14;6.20;1.50
47576;DHT22;33304;52.456;13.328;2023-02-28T10:51:42;6.40;1.70
47576;DHT22;33304;52.456;13.328;2023-02-28T10:54:19;6.50;1.60
47576;DHT22;33304;52.456;13.328;2023-02-28T10:57:06;6.70;1.90
47576;DHT22;33304;52.456;13.328;2023-02-28T10:59:34;6.80;1.00
47576;DHT22;33304;52.456;13.328;2023-02-28T11:02:01;6.70;1.00
47576;DHT22;33304;52.456;13.328;2023-02-28T11:04:33;6.50;1.00
47576;DHT22;33304;52.456;13.328;2023-02-28T11:07:03;6.60;1.00
47576;DHT22;33304;52.456;13.328;2023-02-28T11:09:34;6.70;1.00
47576;DHT22;33304;52.456;13.328;2023-02-28T11:12:05;6.60;1.80
47576;DHT22;33304;52.456;13.328;2023-02-28T11:14:37;6.90;1.00
47576;DHT22;33304;52.456;13.328;2023-02-28T11:17:13;6.90;1.00
47576;DHT22;33304;52.456;13.328;2023-02-28T11:19:45;7.10;1.20
47576;DHT22;33304;52.456;13.328;2023-02-28T11:22:19;7.30;1.30
47576;DHT22;33304;52.456;13.328;2023-02-28T11:24:51;7.40;1.00
47576;DHT22;33304;52.456;13.328;2023-02-28T11:27:45;7.20;1.20
47576;DHT22;33304;52.456;13.328;2023-02-28T11:30:28;7.50;1.20
47576;DHT22;33304;52.456;13.328;2023-02-28T11:32:55;7.60;1.00
47576;DHT22;33304;52.456;13.328;2023-02-28T11:35:26;7.50;1.00
47576;DHT22;33304;52.456;13.328;2023-02-28T11:37:53;7.20;1.00
47576;DHT22;33304;52.456;13.328;2023-02-28T11:40:30;7.20;1.00
47576;DHT22;33304;52.456;13.328;2023-02-28T11:43:06;7.00;1.00
47576;DHT22;33304;52.456;13.328;2023-02-28T11:45:54;7.40;1.90
47576;DHT22;33304;52.456;13.328;2023-02-28T11:48:27;7.60;1.00
47576;DHT22;33304;52.456;13.328;2023-02-28T11:51:06;7.60;1.00
47576;DHT22;33304;52.456;13.328;2023-02-28T11:53:48;7.40;1.00
47576;DHT22;33304;52.456;13.328;2023-02-28T11:56:24;7.70;1.00
47576;DHT22;33304;52.456;13.328;2023-02-28T11:59:01;7.90;1.00
47576;DHT22;33304;52.456;13.328;2023-02-28T12:01:38;8.30;1.00
47576;DHT22;33304;52.456;13.328;2023-02-28T12:04:20;8.20;1.00
47576;DHT22;33304;52.456;13.328;2023-02-28T12:06:54;8.10;1.00
47576;DHT22;33304;52.456;13.328;2023-02-28T12:09:34;8.30;1.00
47576;DHT22;33304;52.456;13.328;2023-02-28T12:12:21;8.50;1.00
47576;DHT22;33304;52.456;13.328;2023-02-28T12:15:16;8.60;1.00
47576;DHT22;33304;52.456;13.328;2023-02-28T12:17:54;8.50;1.00
47576;DHT22;33304;52.456;13.328;2023-02-28T12:20:28;8.60;1.00
47576;DHT22;33304;52.456;13.328;2023-02-28T12:23:10;8.80;1.80
47576;DHT22;33304;52.456;13.328;2023-02-28T12:26:02;9.20;1.00
47576;DHT22;33304;52.456;13.328;2023-02-28T12:28:37;9.10;1.00
47576;DHT22;33304;52.456;13.328;2023-02-28T12:31:10;9.30;1.00
47576;DHT22;33304;52.456;13.328;2023-02-28T12:33:45;9.10;1.00
47576;DHT22;33304;52.456;13.328;2023-02-28T12:36:16;8.60;1.00
47576;DHT22;33304;52.456;13.328;2023-02-28T12:38:47;8.70;1.00
47576;DHT22;33304;52.456;13.328;2023-02-28T12:41:18;8.90;1.00
47576;DHT22;33304;52.456;13.328;2023-02-28T12:43:51;9.20;1.00
47576;DHT22;33304;52.456;13.328;2023-02-28T12:46:24;9.40;1.00
47576;DHT22;33304;52.456;13.328;2023-02-28T12:48:55;9.10;1.00
47576;DHT22;33304;52.456;13.328;2023-02-28T12:51:23;9.40;1.00
47576;DHT22;33304;52.456;13.328;2023-02-28T12:54:05;9.80;1.00
47576;DHT22;33304;52.456;13.328;2023-02-28T12:56:40;10.20;1.00
47576;DHT22;33304;52.456;13.328;2023-02-28T12:59:17;10.60;1.00
47576;DHT22;33304;52.456;13.328;2023-02-28T13:02:09;10.80;1.00
47576;DHT22;33304;52.456;13.328;2023-02-28T13:05:14;10.90;1.00
47576;DHT22;33304;52.456;13.328;2023-02-28T13:08:04;11.20;1.00
47576;DHT22;33304;52.456;13.328;2023-02-28T13:10:42;11.00;1.00
47576;DHT22;33304;52.456;13.328;2023-02-28T13:13:15;11.00;1.00
47576;DHT22;33304;52.456;13.328;2023-02-28T13:15:59;11.30;1.00
47576;DHT22;33304;52.456;13.328;2023-02-28T13:18:31;11.90;1.00
47576;DHT22;33304;52.456;13.328;2023-02-28T13:20:59;12.30;1.00
47576;DHT22;33304;52.456;13.328;2023-02-28T13:24:01;12.40;1.00
47576;DHT22;33304;52.456;13.328;2023-02-28T13:29:37;12.10;1.00
47576;DHT22;33304;52.456;13.328;2023-02-28T13:32:33;12.90;1.00
47576;DHT22;33304;52.456;13.328;2023-02-28T13:38:24;14.70;1.00
47576;DHT22;33304;52.456;13.328;2023-02-28T13:40:51;14.80;1.00
47576;DHT22;33304;52.456;13.328;2023-02-28T13:43:18;15.50;1.00
47576;DHT22;33304;52.456;13.328;2023-02-28T13:46:06;16.40;1.00
47576;DHT22;33304;52.456;13.328;2023-02-28T13:48:34;16.80;1.00
47576;DHT22;33304;52.456;13.328;2023-02-28T13:51:37;17.40;1.00
47576;DHT22;33304;52.456;13.328;2023-02-28T13:57:21;17.20;1.00
47576;DHT22;33304;52.456;13.328;2023-02-28T13:59:58;17.00;1.00
47576;DHT22;33304;52.456;13.328;2023-02-28T14:02:47;17.40;1.00
47576;DHT22;33304;52.456;13.328;2023-02-28T14:05:20;18.10;1.00
47576;DHT22;33304;52.456;13.328;2023-02-28T14:07:53;18.70;1.00
47576;DHT22;33304;52.456;13.328;2023-02-28T14:10:27;16.50;1.00
47576;DHT22;33304;52.456;13.328;2023-02-28T14:13:01;16.80;1.00
47576;DHT22;33304;52.456;13.328;2023-02-28T14:15:44;17.30;1.00
47576;DHT22;33304;52.456;13.328;2023-02-28T14:18:25;17.60;1.00
47576;DHT22;33304;52.456;13.328;2023-02-28T14:20:59;17.20;1.00
47576;DHT22;33304;52.456;13.328;2023-02-28T14:23:50;16.60;1.00
47576;DHT22;33304;52.456;13.328;2023-02-28T14:26:37;17.20;1.00
47576;DHT22;33304;52.456;13.328;2023-02-28T14:30:01;16.40;1.00
47576;DHT22;33304;52.456;13.328;2023-02-28T14:32:35;16.20;1.00
47576;DHT22;33304;52.456;13.328;2023-02-28T14:35:18;16.70;1.00
47576;DHT22;33304;52.456;13.328;2023-02-28T14:37:48;16.10;1.00
47576;DHT22;33304;52.456;13.328;2023-02-28T14:40:17;15.20;1.00
47576;DHT22;33304;52.456;13.328;2023-02-28T14:42:48;15.20;1.00
47576;DHT22;33304;52.456;13.328;2023-02-28T14:45:19;15.50;1.00
47576;DHT22;33304;52.456;13.328;2023-02-28T14:47:48;15.50;1.00
47576;DHT22;33304;52.456;13.328;2023-02-28T14:50:20;15.70;1.00
47576;DHT22;33304;52.456;13.328;2023-02-28T14:52:52;16.20;1.00
47576;DHT22;33304;52.456;13.328;2023-02-28T14:55:23;16.40;1.00
47576;DHT22;33304;52.456;13.328;2023-02-28T14:57:53;16.00;1.00
47576;DHT22;33304;52.456;13.328;2023-02-28T15:00:23;16.20;1.00
47576;DHT22;33304;52.456;13.328;2023-02-28T15:02:51;16.40;1.00
47576;DHT22;33304;52.456;13.328;2023-02-28T15:05:29;15.90;1.00
47576;DHT22;33304;52.456;13.328;2023-02-28T15:08:09;16.20;1.00
47576;DHT22;33304;52.456;13.328;2023-02-28T15:10:37;16.40;1.00
47576;DHT22;33304;52.456;13.328;2023-02-28T15:13:07;16.20;1.00
47576;DHT22;33304;52.456;13.328;2023-02-28T15:15:42;16.10;1.00
47576;DHT22;33304;52.456;13.328;2023-02-28T15:18:18;15.80;1.00
47576;DHT22;33304;52.456;13.328;2023-02-28T15:20:49;16.00;1.00
47576;DHT22;33304;52.456;13.328;2023-02-28T15:23:19;16.30;1.00
47576;DHT22;33304;52.456;13.328;2023-02-28T15:25:48;15.90;1.00
47576;DHT22;33304;52.456;13.328;2023-02-28T15:28:19;15.10;1.00
47576;DHT22;33304;52.456;13.328;2023-02-28T15:30:53;14.80;1.00
47576;DHT22;33304;52.456;13.328;2023-02-28T15:33:22;14.70;1.00
47576;DHT22;33304;52.456;13.328;2023-02-28T15:35:50;14.60;1.00
47576;DHT22;33304;52.456;13.328;2023-02-28T15:38:23;14.20;1.00
47576;DHT22;33304;52.456;13.328;2023-02-28T15:40:52;13.50;1.00
47576;DHT22;33304;52.456;13.328;2023-02-28T15:43:26;12.50;1.00
47576;DHT22;33304;52.456;13.328;2023-02-28T15:45:57;12.10;1.00
47576;DHT22;33304;52.456;13.328;2023-02-28T15:48:26;11.00;1.00
47576;DHT22;33304;52.456;13.328;2023-02-28T15:50:57;10.50;1.00
47576;DHT22;33304;52.456;13.328;2023-02-28T15:53:30;9.70;1.00
47576;DHT22;33304;52.456;13.328;2023-02-28T15:56:00;9.50;1.00
47576;DHT22;33304;52.456;13.328;2023-02-28T15:58:29;9.40;1.00
47576;DHT22;33304;52.456;13.328;2023-02-28T16:01:04;9.20;1.00
47576;DHT22;33304;52.456;13.328;2023-02-28T16:03:39;9.00;1.00
47576;DHT22;33304;52.456;13.328;2023-02-28T16:06:26;8.80;1.00
47576;DHT22;33304;52.456;13.328;2023-02-28T16:08:58;8.60;1.00
47576;DHT22;33304;52.456;13.328;2023-02-28T16:11:25;8.10;1.00
47576;DHT22;33304;52.456;13.328;2023-02-28T16:13:53;7.90;1.00
47576;DHT22;33304;52.456;13.328;2023-02-28T16:16:23;7.80;1.00
47576;DHT22;33304;52.456;13.328;2023-02-28T16:18:51;7.70;1.00